sensor_id;sensor_type;location;lat;lon;timestamp;pressure;altitude;pressure_sealevel;temperature;humidity
55757;BME280;41676;44.610;44.078;2023-04-06T00:00:12;99681.19;;;7.68;90.83
55757;BME280;41676;44.610;44.078;2023-04-06T00:05:13;99731.28;;;7.94;91.01
55757;BME280;41676;44.610;44.078;2023-04-06T00:10:14;99827.84;;;8.48;91.97
55757;BME280;41676;44.610;44.078;2023-04-06T00:15:15;99837.44;;;8.57;92.07
55757;BME280;41676;44.610;44.078;2023-04-06T00:20:16;99744.16;;;8.06;91.61
55757;BME280;41676;44.610;44.078;2023-04-06T00:25:17;99812.94;;;8.63;92.04
55757;BME280;41676;44.610;44.078;2023-04-06T00:30:18;99823.88;;;8.60;92.25
55757;BME280;41676;44.610;44.078;2023-04-06T00:35:19;99673.44;;;7.67;92.23
55757;BME280;41676;44.610;44.078;2023-04-06T00:40:20;99764.81;;;8.35;92.33
55757;BME280;41676;44.610;44.078;2023-04-06T00:45:21;99795.56;;;8.52;92.53
55757;BME280;41676;44.610;44.078;2023-04-06T00:50:21;99824.69;;;8.77;92.57
55757;BME280;41676;44.610;44.078;2023-04-06T00:55:22;99713.53;;;8.19;92.12
55757;BME280;41676;44.610;44.078;2023-04-06T01:00:23;99813.06;;;8.86;91.84
55757;BME280;41676;44.610;44.078;2023-04-06T01:05:24;99836.69;;;8.96;91.88
55757;BME280;41676;44.610;44.078;2023-04-06T01:10:26;99832.56;;;8.93;92.03
55757;BME280;41676;44.610;44.078;2023-04-06T01:15:28;99841.34;;;8.94;91.89
55757;BME280;41676;44.610;44.078;2023-04-06T01:20:30;99818.69;;;8.83;91.89
55757;BME280;41676;44.610;44.078;2023-04-06T01:25:30;99801.81;;;8.84;92.01
55757;BME280;41676;44.610;44.078;2023-04-06T01:30:31;99829.22;;;8.99;92.46
55757;BME280;41676;44.610;44.078;2023-04-06T01:35:32;99813.19;;;8.93;91.82
55757;BME280;41676;44.610;44.078;2023-04-06T01:40:33;99736.84;;;8.40;91.90
55757;BME280;41676;44.610;44.078;2023-04-06T01:45:34;99841.13;;;9.03;92.23
55757;BME280;41676;44.610;44.078;2023-04-06T01:50:35;99851.09;;;9.01;92.46
55757;BME280;41676;44.610;44.078;2023-04-06T01:55:36;99847.28;;;8.96;93.46
55757;BME280;41676;44.610;44.078;2023-04-06T02:00:37;99843.50;;;8.98;93.90
55757;BME280;41676;44.610;44.078;2023-04-06T02:05:38;99842.00;;;8.96;94.07
55757;BME280;41676;44.610;44.078;2023-04-06T02:10:39;99866.66;;;9.04;94.57
55757;BME280;41676;44.610;44.078;2023-04-06T02:15:40;99859.69;;;9.03;95.30
55757;BME280;41676;44.610;44.078;2023-04-06T02:20:40;99842.69;;;8.81;95.36
55757;BME280;41676;44.610;44.078;2023-04-06T02:25:42;99821.38;;;8.58;95.76
55757;BME280;41676;44.610;44.078;2023-04-06T02:30:42;99801.88;;;8.51;96.42
55757;BME280;41676;44.610;44.078;2023-04-06T02:35:44;99871.97;;;8.96;97.47
55757;BME280;41676;44.610;44.078;2023-04-06T02:40:46;99858.91;;;8.86;97.48
55757;BME280;41676;44.610;44.078;2023-04-06T02:45:46;99855.78;;;8.66;97.39
55757;BME280;41676;44.610;44.078;2023-04-06T02:50:47;99896.19;;;8.77;97.95
55757;BME280;41676;44.610;44.078;2023-04-06T02:55:48;99886.25;;;8.71;98.17
55757;BME280;41676;44.610;44.078;2023-04-06T03:00:49;99860.78;;;8.53;98.47
55757;BME280;41676;44.610;44.078;2023-04-06T03:05:50;99892.03;;;8.66;99.04
55757;BME280;41676;44.610;44.078;2023-04-06T03:10:51;99872.84;;;8.56;98.84
55757;BME280;41676;44.610;44.078;2023-04-06T03:15:51;99863.09;;;8.40;99.63
55757;BME280;41676;44.610;44.078;2023-04-06T03:20:52;99827.31;;;8.28;99.19
55757;BME280;41676;44.610;44.078;2023-04-06T03:26:00;99919.66;;;8.88;100.00
55757;BME280;41676;44.610;44.078;2023-04-06T03:31:01;99885.59;;;8.60;99.99
55757;BME280;41676;44.610;44.078;2023-04-06T03:36:02;99823.84;;;8.27;100.00
55757;BME280;41676;44.610;44.078;2023-04-06T03:41:03;99905.91;;;8.76;100.00
55757;BME280;41676;44.610;44.078;2023-04-06T03:46:04;99932.75;;;8.81;100.00
55757;BME280;41676;44.610;44.078;2023-04-06T03:51:05;99849.50;;;8.27;100.00
55757;BME280;41676;44.610;44.078;2023-04-06T03:56:06;99833.59;;;8.10;100.00
55757;BME280;41676;44.610;44.078;2023-04-06T04:01:07;99879.59;;;8.26;100.00
55757;BME280;41676;44.610;44.078;2023-04-06T04:06:08;99937.88;;;8.50;100.00
55757;BME280;41676;44.610;44.078;2023-04-06T04:11:08;99909.03;;;8.31;100.00
55757;BME280;41676;44.610;44.078;2023-04-06T04:16:09;99940.19;;;8.45;100.00
55757;BME280;41676;44.610;44.078;2023-04-06T04:21:10;99795.00;;;7.50;100.00
55757;BME280;41676;44.610;44.078;2023-04-06T04:26:11;99946.47;;;8.44;100.00
55757;BME280;41676;44.610;44.078;2023-04-06T04:31:12;99943.66;;;8.45;100.00
55757;BME280;41676;44.610;44.078;2023-04-06T04:36:13;99913.66;;;8.20;100.00
55757;BME280;41676;44.610;44.078;2023-04-06T04:41:13;99954.25;;;8.45;100.00
55757;BME280;41676;44.610;44.078;2023-04-06T04:46:14;99906.88;;;8.18;100.00
55757;BME280;41676;44.610;44.078;2023-04-06T04:51:15;99953.28;;;8.47;100.00
55757;BME280;41676;44.610;44.078;2023-04-06T04:56:16;99974.13;;;8.50;100.00
55757;BME280;41676;44.610;44.078;2023-04-06T05:01:17;99955.91;;;8.47;100.00
55757;BME280;41676;44.610;44.078;2023-04-06T05:06:17;99953.75;;;8.50;100.00
55757;BME280;41676;44.610;44.078;2023-04-06T05:11:19;99962.34;;;8.52;100.00
55757;BME280;41676;44.610;44.078;2023-04-06T05:16:21;99924.91;;;8.31;100.00
55757;BME280;41676;44.610;44.078;2023-04-06T05:21:22;99964.66;;;8.55;100.00
55757;BME280;41676;44.610;44.078;2023-04-06T05:26:23;99962.03;;;8.47;100.00
55757;BME280;41676;44.610;44.078;2023-04-06T05:31:24;99912.63;;;8.13;100.00
55757;BME280;41676;44.610;44.078;2023-04-06T05:36:25;99981.06;;;8.51;100.00
55757;BME280;41676;44.610;44.078;2023-04-06T05:41:26;99983.84;;;8.49;100.00
55757;BME280;41676;44.610;44.078;2023-04-06T05:46:27;99992.16;;;8.54;100.00
55757;BME280;41676;44.610;44.078;2023-04-06T05:51:28;99991.47;;;8.52;100.00
55757;BME280;41676;44.610;44.078;2023-04-06T05:56:28;99918.94;;;8.12;100.00
55757;BME280;41676;44.610;44.078;2023-04-06T06:01:30;100000.91;;;8.55;100.00
55757;BME280;41676;44.610;44.078;2023-04-06T06:06:31;99997.09;;;8.49;100.00
55757;BME280;41676;44.610;44.078;2023-04-06T06:11:32;99976.91;;;8.40;100.00
55757;BME280;41676;44.610;44.078;2023-04-06T06:16:33;100013.34;;;8.62;100.00
55757;BME280;41676;44.610;44.078;2023-04-06T06:21:34;99988.50;;;8.47;100.00
55757;BME280;41676;44.610;44.078;2023-04-06T06:26:35;100018.97;;;8.59;100.00
55757;BME280;41676;44.610;44.078;2023-04-06T06:31:37;100004.72;;;8.52;100.00
55757;BME280;41676;44.610;44.078;2023-04-06T06:36:38;100018.44;;;8.48;100.00
55757;BME280;41676;44.610;44.078;2023-04-06T06:41:39;99986.00;;;8.45;100.00
55757;BME280;41676;44.610;44.078;2023-04-06T06:46:40;100021.47;;;8.69;100.00
55757;BME280;41676;44.610;44.078;2023-04-06T06:51:41;99986.38;;;8.59;100.00
55757;BME280;41676;44.610;44.078;2023-04-06T06:56:42;100034.06;;;8.91;100.00
55757;BME280;41676;44.610;44.078;2023-04-06T07:01:42;100025.94;;;8.93;100.00
55757;BME280;41676;44.610;44.078;2023-04-06T07:06:43;99989.34;;;8.64;100.00
55757;BME280;41676;44.610;44.078;2023-04-06T07:11:45;99931.84;;;8.23;100.00
55757;BME280;41676;44.610;44.078;2023-04-06T07:16:46;100017.50;;;8.81;100.00
55757;BME280;41676;44.610;44.078;2023-04-06T07:21:49;100006.06;;;8.73;100.00
55757;BME280;41676;44.610;44.078;2023-04-06T07:26:50;99939.50;;;8.43;100.00
55757;BME280;41676;44.610;44.078;2023-04-06T07:31:51;100015.69;;;8.90;100.00
55757;BME280;41676;44.610;44.078;2023-04-06T07:36:52;100015.03;;;8.96;100.00
55757;BME280;41676;44.610;44.078;2023-04-06T07:41:54;99994.81;;;8.79;100.00
55757;BME280;41676;44.610;44.078;2023-04-06T07:46:55;100014.19;;;8.87;100.00
55757;BME280;41676;44.610;44.078;2023-04-06T07:51:56;99982.72;;;8.76;100.00
55757;BME280;41676;44.610;44.078;2023-04-06T07:56:57;99935.41;;;8.57;100.00
55757;BME280;41676;44.610;44.078;2023-04-06T08:01:57;99921.00;;;8.51;100.00
55757;BME280;41676;44.610;44.078;2023-04-06T08:06:58;100023.78;;;9.21;100.00
55757;BME280;41676;44.610;44.078;2023-04-06T08:11:59;100015.66;;;9.14;100.00
55757;BME280;41676;44.610;44.078;2023-04-06T08:16:59;100032.56;;;9.30;100.00
55757;BME280;41676;44.610;44.078;2023-04-06T08:22:00;100027.78;;;9.25;100.00
55757;BME280;41676;44.610;44.078;2023-04-06T08:27:01;99959.72;;;8.93;100.00
55757;BME280;41676;44.610;44.078;2023-04-06T08:32:02;100035.69;;;9.50;100.00
55757;BME280;41676;44.610;44.078;2023-04-06T08:37:06;100032.00;;;9.75;100.00
55757;BME280;41676;44.610;44.078;2023-04-06T08:47:14;100029.38;;;10.06;100.00
55757;BME280;41676;44.610;44.078;2023-04-06T08:52:18;100034.59;;;10.31;100.00
55757;BME280;41676;44.610;44.078;2023-04-06T08:57:19;100020.75;;;10.44;100.00
55757;BME280;41676;44.610;44.078;2023-04-06T09:02:21;100019.50;;;10.63;100.00
55757;BME280;41676;44.610;44.078;2023-04-06T09:07:22;99976.03;;;10.56;100.00
55757;BME280;41676;44.610;44.078;2023-04-06T09:12:28;99930.19;;;10.39;100.00
55757;BME280;41676;44.610;44.078;2023-04-06T09:17:31;100007.56;;;11.05;100.00
55757;BME280;41676;44.610;44.078;2023-04-06T09:22:37;99957.63;;;10.77;100.00
55757;BME280;41676;44.610;44.078;2023-04-06T09:27:38;100010.59;;;11.16;100.00
55757;BME280;41676;44.610;44.078;2023-04-06T09:32:52;100029.44;;;11.45;100.00
55757;BME280;41676;44.610;44.078;2023-04-06T09:37:53;100016.34;;;11.43;100.00
55757;BME280;41676;44.610;44.078;2023-04-06T09:42:55;100019.81;;;11.43;100.00
55757;BME280;41676;44.610;44.078;2023-04-06T09:47:58;100024.13;;;11.45;100.00
55757;BME280;41676;44.610;44.078;2023-04-06T09:53:00;100024.59;;;11.48;100.00
55757;BME280;41676;44.610;44.078;2023-04-06T09:58:04;100006.81;;;11.49;100.00
55757;BME280;41676;44.610;44.078;2023-04-06T10:08:10;100009.22;;;11.73;100.00
55757;BME280;41676;44.610;44.078;2023-04-06T10:13:11;99982.22;;;11.76;100.00
55757;BME280;41676;44.610;44.078;2023-04-06T10:18:12;100001.13;;;12.11;100.00
55757;BME280;41676;44.610;44.078;2023-04-06T10:23:33;99930.22;;;11.88;99.10
55757;BME280;41676;44.610;44.078;2023-04-06T10:28:35;99942.03;;;12.01;97.84
55757;BME280;41676;44.610;44.078;2023-04-06T10:33:36;100008.22;;;12.62;96.31
55757;BME280;41676;44.610;44.078;2023-04-06T10:38:38;100001.06;;;12.62;95.46
55757;BME280;41676;44.610;44.078;2023-04-06T10:43:40;99918.72;;;12.24;93.97
55757;BME280;41676;44.610;44.078;2023-04-06T10:48:44;99917.31;;;12.50;92.96
55757;BME280;41676;44.610;44.078;2023-04-06T10:53:47;99999.25;;;13.12;91.21
55757;BME280;41676;44.610;44.078;2023-04-06T10:58:53;99952.56;;;12.95;88.53
55757;BME280;41676;44.610;44.078;2023-04-06T11:03:57;99986.38;;;13.16;88.31
55757;BME280;41676;44.610;44.078;2023-04-06T11:09:00;99978.34;;;12.88;87.22
55757;BME280;41676;44.610;44.078;2023-04-06T11:14:01;99965.00;;;12.60;86.68
55757;BME280;41676;44.610;44.078;2023-04-06T11:19:04;99972.50;;;12.34;87.46
55757;BME280;41676;44.610;44.078;2023-04-06T11:29:12;99924.13;;;11.80;86.88
55757;BME280;41676;44.610;44.078;2023-04-06T11:34:18;99952.41;;;11.96;87.26
55757;BME280;41676;44.610;44.078;2023-04-06T11:39:21;99977.31;;;12.24;87.30
55757;BME280;41676;44.610;44.078;2023-04-06T11:44:28;99965.66;;;12.47;86.49
55757;BME280;41676;44.610;44.078;2023-04-06T11:49:31;99951.63;;;12.38;87.30
55757;BME280;41676;44.610;44.078;2023-04-06T11:54:37;99863.56;;;11.97;88.42
55757;BME280;41676;44.610;44.078;2023-04-06T11:59:38;99922.22;;;12.46;87.28
55757;BME280;41676;44.610;44.078;2023-04-06T12:04:38;99910.84;;;12.59;87.36
55757;BME280;41676;44.610;44.078;2023-04-06T12:09:39;99872.84;;;12.72;86.15
55757;BME280;41676;44.610;44.078;2023-04-06T12:14:40;99929.50;;;13.37;85.22
55757;BME280;41676;44.610;44.078;2023-04-06T12:19:41;99919.31;;;13.47;84.31
55757;BME280;41676;44.610;44.078;2023-04-06T12:24:42;99928.03;;;13.69;83.62
55757;BME280;41676;44.610;44.078;2023-04-06T12:29:43;99910.50;;;13.53;83.75
55757;BME280;41676;44.610;44.078;2023-04-06T12:34:43;99860.97;;;13.09;83.81
55757;BME280;41676;44.610;44.078;2023-04-06T12:39:44;99934.84;;;13.37;83.80
55757;BME280;41676;44.610;44.078;2023-04-06T12:44:45;99917.97;;;13.01;83.38
55757;BME280;41676;44.610;44.078;2023-04-06T12:49:47;99953.53;;;13.15;82.86
55757;BME280;41676;44.610;44.078;2023-04-06T12:54:48;99893.69;;;12.90;82.58
55757;BME280;41676;44.610;44.078;2023-04-06T12:59:49;99940.16;;;13.09;82.48
55757;BME280;41676;44.610;44.078;2023-04-06T13:04:50;99957.03;;;13.16;82.55
55757;BME280;41676;44.610;44.078;2023-04-06T13:09:51;99948.13;;;13.02;82.45
55757;BME280;41676;44.610;44.078;2023-04-06T13:14:52;99913.00;;;12.70;81.59
55757;BME280;41676;44.610;44.078;2023-04-06T13:19:53;99895.94;;;12.65;81.99
55757;BME280;41676;44.610;44.078;2023-04-06T13:24:54;99902.28;;;12.64;82.79
55757;BME280;41676;44.610;44.078;2023-04-06T13:29:55;99934.19;;;12.78;82.79
55757;BME280;41676;44.610;44.078;2023-04-06T13:34:57;99980.84;;;12.89;83.66
55757;BME280;41676;44.610;44.078;2023-04-06T13:39:58;99968.59;;;12.73;83.76
55757;BME280;41676;44.610;44.078;2023-04-06T13:44:59;99980.91;;;12.74;84.05
55757;BME280;41676;44.610;44.078;2023-04-06T13:50:00;99920.50;;;12.39;84.36
55757;BME280;41676;44.610;44.078;2023-04-06T13:55:01;99984.94;;;12.70;84.27
55757;BME280;41676;44.610;44.078;2023-04-06T14:00:03;99928.41;;;12.32;84.31
55757;BME280;41676;44.610;44.078;2023-04-06T14:05:04;99958.03;;;12.65;84.73
55757;BME280;41676;44.610;44.078;2023-04-06T14:10:06;99944.88;;;12.57;84.85
55757;BME280;41676;44.610;44.078;2023-04-06T14:15:13;99977.41;;;12.74;85.16
55757;BME280;41676;44.610;44.078;2023-04-06T14:20:14;99913.13;;;12.41;85.02
55757;BME280;41676;44.610;44.078;2023-04-06T14:25:15;99984.06;;;12.85;85.27
55757;BME280;41676;44.610;44.078;2023-04-06T14:30:16;99948.03;;;12.67;85.61
55757;BME280;41676;44.610;44.078;2023-04-06T14:35:17;99982.75;;;12.95;85.39
55757;BME280;41676;44.610;44.078;2023-04-06T14:40:18;99982.66;;;12.89;85.33
55757;BME280;41676;44.610;44.078;2023-04-06T14:45:19;99807.34;;;11.70;85.19
55757;BME280;41676;44.610;44.078;2023-04-06T14:50:21;99984.91;;;12.64;85.31
55757;BME280;41676;44.610;44.078;2023-04-06T14:55:22;99970.75;;;12.63;85.98
55757;BME280;41676;44.610;44.078;2023-04-06T15:00:23;99817.66;;;11.58;86.01
55757;BME280;41676;44.610;44.078;2023-04-06T15:05:24;99971.91;;;12.54;86.60
55757;BME280;41676;44.610;44.078;2023-04-06T15:10:26;99939.81;;;12.26;87.42
55757;BME280;41676;44.610;44.078;2023-04-06T15:15:27;99875.84;;;11.83;87.83
55757;BME280;41676;44.610;44.078;2023-04-06T15:20:28;99956.63;;;12.26;88.12
55757;BME280;41676;44.610;44.078;2023-04-06T15:25:30;99969.78;;;12.28;88.54
55757;BME280;41676;44.610;44.078;2023-04-06T15:30:31;99978.13;;;12.25;89.45
55757;BME280;41676;44.610;44.078;2023-04-06T15:35:32;99964.41;;;12.06;90.61
55757;BME280;41676;44.610;44.078;2023-04-06T15:40:42;99967.19;;;11.98;90.75
55757;BME280;41676;44.610;44.078;2023-04-06T15:45:43;99956.06;;;11.80;91.79
55757;BME280;41676;44.610;44.078;2023-04-06T15:50:43;100001.50;;;11.93;92.52
55757;BME280;41676;44.610;44.078;2023-04-06T15:55:44;99880.88;;;11.12;92.72
55757;BME280;41676;44.610;44.078;2023-04-06T16:00:45;99986.44;;;11.71;93.88
55757;BME280;41676;44.610;44.078;2023-04-06T16:05:46;100013.97;;;11.78;93.98
55757;BME280;41676;44.610;44.078;2023-04-06T16:10:47;99997.38;;;11.61;94.31
55757;BME280;41676;44.610;44.078;2023-04-06T16:15:50;100011.94;;;11.65;95.65
55757;BME280;41676;44.610;44.078;2023-04-06T16:20:51;99929.09;;;11.09;94.57
55757;BME280;41676;44.610;44.078;2023-04-06T16:25:52;99997.44;;;11.38;94.91
55757;BME280;41676;44.610;44.078;2023-04-06T16:30:57;99970.91;;;11.15;95.21
55757;BME280;41676;44.610;44.078;2023-04-06T16:35:58;100015.84;;;11.39;95.62
55757;BME280;41676;44.610;44.078;2023-04-06T16:40:59;100029.16;;;11.39;95.73
55757;BME280;41676;44.610;44.078;2023-04-06T16:46:03;100029.88;;;11.33;96.03
55757;BME280;41676;44.610;44.078;2023-04-06T16:51:13;99979.13;;;11.05;98.34
55757;BME280;41676;44.610;44.078;2023-04-06T16:56:15;100040.16;;;11.36;96.77
55757;BME280;41676;44.610;44.078;2023-04-06T17:01:17;100015.16;;;11.08;97.25
55757;BME280;41676;44.610;44.078;2023-04-06T17:06:19;100043.41;;;11.09;97.33
55757;BME280;41676;44.610;44.078;2023-04-06T17:11:20;99968.56;;;10.59;97.06
55757;BME280;41676;44.610;44.078;2023-04-06T17:16:21;100037.56;;;10.90;97.38
55757;BME280;41676;44.610;44.078;2023-04-06T17:21:21;100067.88;;;11.04;98.16
55757;BME280;41676;44.610;44.078;2023-04-06T17:26:22;100074.16;;;11.03;98.38
55757;BME280;41676;44.610;44.078;2023-04-06T17:31:23;100033.97;;;10.83;98.66
55757;BME280;41676;44.610;44.078;2023-04-06T17:36:24;99998.59;;;10.60;99.13
55757;BME280;41676;44.610;44.078;2023-04-06T17:41:27;100066.03;;;11.05;99.39
55757;BME280;41676;44.610;44.078;2023-04-06T17:46:28;100071.41;;;10.96;99.58
55757;BME280;41676;44.610;44.078;2023-04-06T17:51:29;100075.22;;;10.94;99.42
55757;BME280;41676;44.610;44.078;2023-04-06T17:56:30;100057.34;;;10.88;99.37
55757;BME280;41676;44.610;44.078;2023-04-06T18:01:31;100037.09;;;10.87;99.39
55757;BME280;41676;44.610;44.078;2023-04-06T18:06:32;99984.84;;;10.56;99.22
55757;BME280;41676;44.610;44.078;2023-04-06T18:11:33;100055.81;;;10.93;99.19
55757;BME280;41676;44.610;44.078;2023-04-06T18:16:33;100050.19;;;10.88;99.63
55757;BME280;41676;44.610;44.078;2023-04-06T18:21:34;100039.34;;;10.75;100.00
55757;BME280;41676;44.610;44.078;2023-04-06T18:26:35;99957.34;;;10.18;100.00
55757;BME280;41676;44.610;44.078;2023-04-06T18:31:36;100029.16;;;10.56;100.00
55757;BME280;41676;44.610;44.078;2023-04-06T18:36:37;100043.72;;;10.68;100.00
55757;BME280;41676;44.610;44.078;2023-04-06T18:41:37;100018.88;;;10.52;100.00
55757;BME280;41676;44.610;44.078;2023-04-06T18:46:38;100041.34;;;10.73;100.00
55757;BME280;41676;44.610;44.078;2023-04-06T18:51:39;99991.88;;;10.41;100.00
55757;BME280;41676;44.610;44.078;2023-04-06T18:56:42;100026.69;;;10.54;100.00
55757;BME280;41676;44.610;44.078;2023-04-06T19:01:43;100014.63;;;10.43;100.00
55757;BME280;41676;44.610;44.078;2023-04-06T19:06:46;99938.69;;;10.03;100.00
55757;BME280;41676;44.610;44.078;2023-04-06T19:11:47;99958.19;;;10.10;100.00
55757;BME280;41676;44.610;44.078;2023-04-06T19:16:47;100014.47;;;10.45;100.00
55757;BME280;41676;44.610;44.078;2023-04-06T19:21:51;100018.94;;;10.44;100.00
55757;BME280;41676;44.610;44.078;2023-04-06T19:26:52;100011.69;;;10.38;100.00
55757;BME280;41676;44.610;44.078;2023-04-06T19:31:53;100025.13;;;10.37;100.00
55757;BME280;41676;44.610;44.078;2023-04-06T19:36:53;100015.19;;;10.22;100.00
55757;BME280;41676;44.610;44.078;2023-04-06T19:41:55;100024.41;;;10.12;100.00
55757;BME280;41676;44.610;44.078;2023-04-06T19:46:56;100027.19;;;10.10;100.00
55757;BME280;41676;44.610;44.078;2023-04-06T19:51:57;99912.94;;;9.33;100.00
55757;BME280;41676;44.610;44.078;2023-04-06T19:56:57;100035.06;;;9.95;100.00
55757;BME280;41676;44.610;44.078;2023-04-06T20:01:58;100029.25;;;10.00;100.00
55757;BME280;41676;44.610;44.078;2023-04-06T20:06:59;99945.06;;;9.38;100.00
55757;BME280;41676;44.610;44.078;2023-04-06T20:12:00;99978.84;;;9.44;100.00
55757;BME280;41676;44.610;44.078;2023-04-06T20:17:01;100041.75;;;9.75;100.00
55757;BME280;41676;44.610;44.078;2023-04-06T20:22:02;100049.56;;;9.60;100.00
55757;BME280;41676;44.610;44.078;2023-04-06T20:27:03;100051.09;;;9.54;100.00
55757;BME280;41676;44.610;44.078;2023-04-06T20:32:04;100061.53;;;9.56;100.00
55757;BME280;41676;44.610;44.078;2023-04-06T20:37:05;100052.25;;;9.52;100.00
55757;BME280;41676;44.610;44.078;2023-04-06T20:42:05;100046.47;;;9.40;100.00
55757;BME280;41676;44.610;44.078;2023-04-06T20:47:07;100065.38;;;9.37;100.00
55757;BME280;41676;44.610;44.078;2023-04-06T20:52:08;100057.91;;;9.32;100.00
55757;BME280;41676;44.610;44.078;2023-04-06T20:57:09;99949.63;;;8.64;100.00
55757;BME280;41676;44.610;44.078;2023-04-06T21:02:10;100006.09;;;8.89;100.00
55757;BME280;41676;44.610;44.078;2023-04-06T21:07:11;100030.09;;;9.04;100.00
55757;BME280;41676;44.610;44.078;2023-04-06T21:12:12;100041.66;;;9.03;100.00
55757;BME280;41676;44.610;44.078;2023-04-06T21:17:13;100067.19;;;9.04;100.00
55757;BME280;41676;44.610;44.078;2023-04-06T21:22:13;99976.56;;;8.43;100.00
55757;BME280;41676;44.610;44.078;2023-04-06T21:27:14;100052.06;;;8.63;100.00
55757;BME280;41676;44.610;44.078;2023-04-06T21:32:15;100017.69;;;8.21;100.00
55757;BME280;41676;44.610;44.078;2023-04-06T21:37:16;99967.31;;;7.88;100.00
55757;BME280;41676;44.610;44.078;2023-04-06T21:42:17;100031.78;;;8.30;100.00
55757;BME280;41676;44.610;44.078;2023-04-06T21:47:18;99997.44;;;8.04;100.00
55757;BME280;41676;44.610;44.078;2023-04-06T21:52:18;100033.47;;;8.05;100.00
55757;BME280;41676;44.610;44.078;2023-04-06T21:57:19;99999.50;;;7.75;100.00
55757;BME280;41676;44.610;44.078;2023-04-06T22:02:20;99993.13;;;7.60;100.00
55757;BME280;41676;44.610;44.078;2023-04-06T22:07:21;100026.25;;;7.72;100.00
55757;BME280;41676;44.610;44.078;2023-04-06T22:12:23;100026.31;;;7.54;100.00
55757;BME280;41676;44.610;44.078;2023-04-06T22:17:23;100026.38;;;7.45;100.00
55757;BME280;41676;44.610;44.078;2023-04-06T22:22:24;100019.06;;;7.30;100.00
55757;BME280;41676;44.610;44.078;2023-04-06T22:27:26;100023.44;;;7.22;100.00
55757;BME280;41676;44.610;44.078;2023-04-06T22:32:26;100018.41;;;7.11;100.00
55757;BME280;41676;44.610;44.078;2023-04-06T22:37:27;100011.63;;;7.08;100.00
55757;BME280;41676;44.610;44.078;2023-04-06T22:42:28;99992.84;;;6.93;100.00
55757;BME280;41676;44.610;44.078;2023-04-06T22:47:29;100011.41;;;7.01;100.00
55757;BME280;41676;44.610;44.078;2023-04-06T22:52:30;99996.19;;;6.77;100.00
55757;BME280;41676;44.610;44.078;2023-04-06T22:57:31;99979.66;;;6.57;100.00
55757;BME280;41676;44.610;44.078;2023-04-06T23:02:31;99996.72;;;6.63;100.00
55757;BME280;41676;44.610;44.078;2023-04-06T23:07:32;99980.78;;;6.55;100.00
55757;BME280;41676;44.610;44.078;2023-04-06T23:12:34;99969.19;;;6.48;100.00
55757;BME280;41676;44.610;44.078;2023-04-06T23:17:35;99971.38;;;6.34;100.00
55757;BME280;41676;44.610;44.078;2023-04-06T23:22:36;99967.00;;;6.07;100.00
55757;BME280;41676;44.610;44.078;2023-04-06T23:27:38;99970.81;;;5.85;100.00
55757;BME280;41676;44.610;44.078;2023-04-06T23:32:38;99931.69;;;5.53;100.00
55757;BME280;41676;44.610;44.078;2023-04-06T23:37:39;99978.25;;;5.72;100.00
55757;BME280;41676;44.610;44.078;2023-04-06T23:42:40;99882.22;;;5.19;100.00
55757;BME280;41676;44.610;44.078;2023-04-06T23:47:41;99969.59;;;5.80;100.00
55757;BME280;41676;44.610;44.078;2023-04-06T23:52:42;99919.69;;;5.51;100.00
55757;BME280;41676;44.610;44.078;2023-04-06T23:57:43;99942.41;;;5.79;100.00
